Terminal Aerodrome Forecast
Issued by NWS

Home | Current Version | Previous Version | Text Only | Print | Product List | Glossary On
Versions: 1 2 3 4 5 6 7 8 9 10 11 12 13 14 15 16 17 18 19 20 21 22 23 24 25 26 27 28
000
FTUS46 KSEW 290539
TAFSEA
TAF
KSEA 290539Z 2906/3012 15011KT P6SM -RA SCT025 OVC040
     FM290900 15011KT P6SM -RA SCT015 OVC030
      TEMPO 2911/2915 5SM -RA BR BKN015 OVC030
     FM291500 17013G22KT P6SM -RA BKN020 OVC040
     FM292000 20013G22KT P6SM -SHRA BKN030 OVC050
     FM300000 22012KT P6SM VCSH SCT035 BKN050 BKN200
     FM300900 22012KT P6SM VCSH OVC028=

USA.gov is the U.S. government's official web portal to all federal, state and local government web resources and services.